No.10 Hasshomaru — JD2992 — position and weather

sailwx.info

Track history (hours):
 
Tides and Currents Weather Stations Pressure Air Temp Water Temp Dewpoint Dewpoint Depression Visibility Wind Speed Wind Dir Waves Ship Positions

No.10 Hasshomaru

Last reported at 2015-Aug-26 08:09 UTC. Time now 2015-Aug-28 05:15 UTC.
Position N 36°05' E 140°45'.

Length 105 m; draft 6.6 m.

Type: Tanker. MMSI: 431001112.

Date/timePositionNaut miles runAvg speedWind from/ knotsBaromVisibWave heightAir tempDewpointWater temp
2015-Aug-26 08:09N 36°05' E 140°45'712.1
2015-Aug-26 07:32N 35°58' E 140°43'4 0.4
2015-Aug-25 22:30N 35°55' E 140°41'5 4.9
2015-Aug-25 21:30N 35°59' E 140°44'4 3.9
2015-Aug-25 20:33N 35°56' E 140°47'19 9.4
2015-Aug-25 18:30N 35°38' E 140°53'1213.1
2015-Aug-25 17:33N 35°28' E 140°43'1514.3
2015-Aug-25 16:31N 35°16' E 140°33'1515.3
2015-Aug-25 15:33N 35°04' E 140°22'1413.9
2015-Aug-25 14:33N 34°57' E 140°07'1412.0
2015-Aug-25 13:23N 34°52' E 139°51'1011.6
2015-Aug-25 12:33N 34°60' E 139°44'4 3.9
2015-Aug-25 11:30N 35°03' E 139°48'0 0.0
2015-Aug-25 10:30N 35°03' E 139°48'0 0.1
2015-Aug-25 09:33N 35°03' E 139°48'5 4.7
2015-Aug-25 08:33N 35°07' E 139°47'1312.7
2015-Aug-25 07:33N 35°20' E 139°43'1111.1
2015-Aug-25 06:33N 35°30' E 139°47'1 1.0
2015-Aug-25 05:31N 35°31' E 139°46'0 0.0
2015-Aug-25 04:31N 35°31' E 139°46'0 0.0
2015-Aug-25 03:31N 35°31' E 139°46'0 0.0
2015-Aug-25 02:31N 35°31' E 139°46'0 0.0
2015-Aug-25 01:31N 35°31' E 139°46'5 4.7
2015-Aug-25 00:33N 35°26' E 139°45'6 5.6
2015-Aug-24 23:33N 35°21' E 139°45'10 9.6
2015-Aug-24 22:33N 35°11' E 139°47'1010.2
2015-Aug-24 21:33N 35°01' E 139°44'14 9.9
2015-Aug-24 20:08N 34°52' E 139°57'814.4
2015-Aug-24 19:33N 34°56' E 140°06'2612.8
2015-Aug-24 17:32N 35°13' E 140°31'1514.0
2015-Aug-24 16:29N 35°25' E 140°41'1414.7
2015-Aug-24 15:30N 35°36' E 140°51'  
Track history (hours):
 
Tides and Currents Weather Stations Pressure Air Temp Water Temp Dewpoint Dewpoint Depression Visibility Wind Speed Wind Dir Waves Ship Positions

No.10 Hasshomaru

Last reported at 2015-Aug-26 08:09 UTC. Time now 2015-Aug-28 05:15 UTC.
Position N 36°05' E 140°45'.

Length 105 m; draft 6.6 m.

Type: Tanker. MMSI: 431001112.

Date/timePositionNaut miles runAvg speedWind from/ knotsBaromVisibWave heightAir tempDewpointWater temp
2015-Aug-26 08:09N 36°05' E 140°45'712.1
2015-Aug-26 07:32N 35°58' E 140°43'4 0.4
2015-Aug-25 22:30N 35°55' E 140°41'5 4.9
2015-Aug-25 21:30N 35°59' E 140°44'4 3.9
2015-Aug-25 20:33N 35°56' E 140°47'19 9.4
2015-Aug-25 18:30N 35°38' E 140°53'1213.1
2015-Aug-25 17:33N 35°28' E 140°43'1514.3
2015-Aug-25 16:31N 35°16' E 140°33'1515.3
2015-Aug-25 15:33N 35°04' E 140°22'1413.9
2015-Aug-25 14:33N 34°57' E 140°07'1412.0
2015-Aug-25 13:23N 34°52' E 139°51'1011.6
2015-Aug-25 12:33N 34°60' E 139°44'4 3.9
2015-Aug-25 11:30N 35°03' E 139°48'0 0.0
2015-Aug-25 10:30N 35°03' E 139°48'0 0.1
2015-Aug-25 09:33N 35°03' E 139°48'5 4.7
2015-Aug-25 08:33N 35°07' E 139°47'1312.7
2015-Aug-25 07:33N 35°20' E 139°43'1111.1
2015-Aug-25 06:33N 35°30' E 139°47'1 1.0
2015-Aug-25 05:31N 35°31' E 139°46'0 0.0
2015-Aug-25 04:31N 35°31' E 139°46'0 0.0
2015-Aug-25 03:31N 35°31' E 139°46'0 0.0
2015-Aug-25 02:31N 35°31' E 139°46'0 0.0
2015-Aug-25 01:31N 35°31' E 139°46'5 4.7
2015-Aug-25 00:33N 35°26' E 139°45'6 5.6
2015-Aug-24 23:33N 35°21' E 139°45'10 9.6
2015-Aug-24 22:33N 35°11' E 139°47'1010.2
2015-Aug-24 21:33N 35°01' E 139°44'14 9.9
2015-Aug-24 20:08N 34°52' E 139°57'814.4
2015-Aug-24 19:33N 34°56' E 140°06'2612.8
2015-Aug-24 17:32N 35°13' E 140°31'1514.0
2015-Aug-24 16:29N 35°25' E 140°41'1414.7
2015-Aug-24 15:30N 35°36' E 140°51'  

Dump ship's entire track history